SLTR

Teniente Av. Jorge Henrich Arauz Airport

Trinidad, Bolivia
TAF SLTR 202200Z 2100/2124 00000KT 9999 FEW017 TX33/2120Z TN21/2110Z BECMG 2114/2117 33008KT SCT017 SCT080 TEMPO 2118/2121 8000 VCSH FEW027CB
Issued Valid From Valid To
Apr-20 @ 22:00 UTC
(6 hours ago)
Apr-21 @ 00:00 UTC
(4 hours ago)
Apr-22 @ 00:00 UTC
(in 20 hours)
Apr-21 @ 00:00 to Apr-21 @ 14:00
TAF SLTR 202200Z 2100/2124 00000KT 9999 FEW017 TX33/2120Z TN21/2110Z
Visibility Clouds
10,000+ meters
  • Few at 1,700' AGL
Becoming Apr-21 @ 14:00 to Apr-22 @ 00:00
BECMG 2114/2117 33008KT SCT017 SCT080
Wind Visibility Clouds
330° at 8 knots 10,000+ meters
  • Scattered at 1,700' AGL
  • Scattered at 8,000' AGL
Temporary Apr-21 @ 18:00 to Apr-21 @ 21:00
TEMPO 2118/2121 8000 VCSH FEW027CB
Visibility Clouds
7,998 meters
  • Few at 2,700' AGL
TAF SLTR 202200Z 2100/2124 00000KT 9999 FEW017 TX33/2120Z TN21/2110Z BECMG 2114/2117 33008KT SCT017 SCT080 TEMPO 2118/2121 8000 VCSH FEW027CB
Issued Apr-20 @ 22:00 UTC
(6 hours ago)
Valid From Apr-21 @ 00:00 UTC
(4 hours ago)
Valid To Apr-22 @ 00:00 UTC
(in 20 hours)
Apr-21 @ 00:00 - Apr-21 @ 14:00
Clouds
  • Few at 1,700' AGL
Becoming Apr-21 @ 14:00 - Apr-22 @ 00:00
Wind Visibility
330° at 8 knots 10,000+ meters
Clouds
  • Scattered at 1,700' AGL
  • Scattered at 8,000' AGL
Temporary Apr-21 @ 18:00 - Apr-21 @ 21:00
Clouds
  • Few at 2,700' AGL